Time;durP1;ratioP1;P1;durP2;ratioP2;P2;SDS_P1;SDS_P2;PMS_P1;PMS_P2;Temp;Humidity;BMP_temperature;BMP_pressure;BME280_temperature;BME280_humidity;BME280_pressure;Samples;Min_cycle;Max_cycle;Signal;HPM_P1;HPM_P2
2022/06/27 00:02:29;;;;;;;0.00;0.00;;;21.20;99.90;;;;;;4980486;28;20450;-77
2022/06/27 00:04:57;;;;;;;0.00;0.00;;;21.10;99.90;;;;;;4980977;28;20681;-77
2022/06/27 00:07:26;;;;;;;0.00;0.00;;;21.10;99.90;;;;;;4980088;28;20471;-77
2022/06/27 00:09:54;;;;;;;0.00;0.00;;;21.00;99.90;;;;;;4980554;28;21001;-79
2022/06/27 00:12:21;;;;;;;0.00;0.00;;;21.00;99.90;;;;;;4980481;28;20818;-80
2022/06/27 00:14:50;;;;;;;0.00;0.00;;;21.00;99.90;;;;;;4981130;28;20732;-79
2022/06/27 00:17:18;;;;;;;0.00;0.00;;;21.00;99.90;;;;;;4981763;28;20462;-80
2022/06/27 00:19:46;;;;;;;0.00;0.00;;;20.90;99.90;;;;;;4992866;28;21017;-78
2022/06/27 00:22:14;;;;;;;0.00;0.00;;;20.90;99.90;;;;;;4988079;28;20832;-80
2022/06/27 00:24:43;;;;;;;0.00;0.00;;;21.00;99.90;;;;;;4979922;28;20954;-79
2022/06/27 00:27:11;;;;;;;0.00;0.00;;;20.90;99.90;;;;;;4982284;28;20459;-79
2022/06/27 00:29:40;;;;;;;0.00;0.00;;;21.00;99.90;;;;;;4982458;28;20705;-79
2022/06/27 00:32:09;;;;;;;0.00;0.00;;;21.00;99.90;;;;;;4983572;28;20435;-78
2022/06/27 00:34:37;;;;;;;0.00;0.00;;;21.00;99.90;;;;;;4982806;28;20573;-78
2022/06/27 00:37:05;;;;;;;0.00;0.00;;;21.00;99.90;;;;;;4982116;28;20471;-80
2022/06/27 00:39:33;;;;;;;0.00;0.00;;;20.90;99.90;;;;;;4980247;28;20498;-79
2022/06/27 00:42:03;;;;;;;0.00;0.00;;;20.90;99.90;;;;;;4980611;28;20473;-79
2022/06/27 00:44:32;;;;;;;0.00;0.00;;;20.80;99.90;;;;;;4980592;28;20447;-79
2022/06/27 00:47:00;;;;;;;0.00;0.00;;;20.80;99.90;;;;;;4980400;28;20498;-79
2022/06/27 00:49:28;;;;;;;0.00;0.00;;;20.80;99.90;;;;;;4980692;28;20530;-79
2022/06/27 00:51:57;;;;;;;0.00;0.00;;;20.80;99.90;;;;;;4982898;28;20938;-79
2022/06/27 00:54:37;;;;;;;0.00;0.00;;;20.80;99.90;;;;;;4989208;28;20811;-79
2022/06/27 00:57:25;;;;;;;0.00;0.00;;;20.80;99.90;;;;;;4988248;28;20474;-78
2022/06/27 01:00:15;;;;;;;0.00;0.00;;;20.70;99.90;;;;;;4967024;28;20489;-78
2022/06/27 01:02:52;;;;;;;0.00;0.00;;;20.70;99.90;;;;;;4982918;28;20455;-79
2022/06/27 01:05:37;;;;;;;0.00;0.00;;;20.70;99.90;;;;;;4983249;28;20461;-78
2022/06/27 01:11:36;;;;;;;0.00;0.00;;;20.70;99.90;;;;;;4984669;28;20477;-80
2022/06/27 01:14:38;;;;;;;0.00;0.00;;;20.80;99.90;;;;;;4986026;28;20435;-79
2022/06/27 01:17:12;;;;;;;0.00;0.00;;;20.70;99.90;;;;;;4984457;28;20457;-79
2022/06/27 01:19:46;;;;;;;0.00;0.00;;;20.80;99.90;;;;;;4982354;28;20477;-80
2022/06/27 01:25:14;;;;;;;0.00;0.00;;;20.80;99.90;;;;;;4984584;28;20450;-79
2022/06/27 01:27:52;;;;;;;0.00;0.00;;;20.80;99.90;;;;;;4985169;28;21020;-76
2022/06/27 01:30:27;;;;;;;0.00;0.00;;;20.80;99.90;;;;;;4981036;28;20446;-75
2022/06/27 01:33:04;;;;;;;0.00;0.00;;;20.80;99.90;;;;;;4984435;28;20431;-80
2022/06/27 01:35:45;;;;;;;0.00;0.00;;;20.80;99.90;;;;;;4984654;28;21016;-77
2022/06/27 01:38:31;;;;;;;0.00;0.00;;;20.80;99.90;;;;;;4961333;28;20451;-76
2022/06/27 01:41:03;;;;;;;0.00;0.00;;;20.90;99.90;;;;;;4982793;28;20493;-76
2022/06/27 01:43:45;;;;;;;0.00;0.00;;;21.00;99.90;;;;;;4982176;28;20447;-74
2022/06/27 01:50:37;;;;;;;0.00;0.00;;;20.90;99.90;;;;;;4992777;28;20779;-75
2022/06/27 01:56:10;;;;;;;0.00;0.00;;;20.90;99.90;;;;;;4987173;28;20498;-76
2022/06/27 01:58:48;;;;;;;0.00;0.00;;;21.00;99.90;;;;;;4955490;28;20475;-76
2022/06/27 02:01:24;;;;;;;0.00;0.00;;;21.00;99.90;;;;;;4982711;28;21087;-76
2022/06/27 02:07:44;;;;;;;0.00;0.00;;;21.00;99.90;;;;;;4985989;28;20430;-77
2022/06/27 02:10:24;;;;;;;0.00;0.00;;;21.00;99.90;;;;;;4966702;28;20430;-76
2022/06/27 02:17:08;;;;;;;0.00;0.00;;;21.00;99.90;;;;;;4988255;28;20461;-75
2022/06/27 02:22:23;;;;;;;0.00;0.00;;;20.90;99.90;;;;;;5356669;23;20591;-77
2022/06/27 02:24:51;;;;;;;0.00;0.00;;;20.80;99.90;;;;;;4980887;28;20447;-75
2022/06/27 02:27:20;;;;;;;0.00;0.00;;;20.80;99.90;;;;;;4980546;28;20470;-76
2022/06/27 02:29:48;;;;;;;0.00;0.00;;;20.80;99.90;;;;;;4978727;28;20954;-76
2022/06/27 02:32:18;;;;;;;0.00;0.00;;;20.70;99.90;;;;;;4978393;28;20750;-76
2022/06/27 02:34:49;;;;;;;0.00;0.00;;;20.70;99.90;;;;;;4978789;28;21078;-76
2022/06/27 02:37:17;;;;;;;0.00;0.00;;;20.50;99.90;;;;;;4985480;28;20474;-81
2022/06/27 02:39:47;;;;;;;0.00;0.00;;;20.50;99.90;;;;;;4982596;28;20740;-80
2022/06/27 02:42:18;;;;;;;0.00;0.00;;;20.50;99.90;;;;;;4982884;28;20482;-82
2022/06/27 02:44:49;;;;;;;0.00;0.00;;;20.40;99.90;;;;;;4998708;28;20475;-82
2022/06/27 02:47:20;;;;;;;0.00;0.00;;;20.30;99.90;;;;;;4981288;28;20463;-73
2022/06/27 02:49:49;;;;;;;0.00;0.00;;;20.30;99.90;;;;;;4979210;28;20446;-81
2022/06/27 02:52:24;;;;;;;0.00;0.00;;;20.20;99.90;;;;;;4978928;28;20954;-78
2022/06/27 02:54:58;;;;;;;0.00;0.00;;;20.20;99.90;;;;;;4979174;28;20454;-78
2022/06/27 02:57:36;;;;;;;0.00;0.00;;;20.10;99.90;;;;;;4980332;28;20476;-79
2022/06/27 03:00:07;;;;;;;0.00;0.00;;;20.00;99.90;;;;;;4979927;28;20682;-80
2022/06/27 03:02:38;;;;;;;0.00;0.00;;;20.00;99.90;;;;;;4979884;28;20938;-79
2022/06/27 03:05:07;;;;;;;0.00;0.00;;;19.90;99.90;;;;;;4979037;28;20857;-78
2022/06/27 03:07:38;;;;;;;0.00;0.00;;;19.90;99.90;;;;;;4980229;28;20486;-81
2022/06/27 03:10:07;;;;;;;0.00;0.00;;;19.80;99.90;;;;;;4979851;28;20579;-77
2022/06/27 03:12:35;;;;;;;0.00;0.00;;;19.80;99.90;;;;;;4978968;28;20439;-78
2022/06/27 03:15:03;;;;;;;0.00;0.00;;;19.80;99.90;;;;;;4978316;28;20439;-78
2022/06/27 03:17:31;;;;;;;0.00;0.00;;;19.70;99.90;;;;;;4979304;28;20533;-78
2022/06/27 03:20:00;;;;;;;0.00;0.00;;;19.70;99.90;;;;;;4983562;28;20442;-81
2022/06/27 03:22:28;;;;;;;0.00;0.00;;;19.70;99.90;;;;;;4984457;28;20552;-81
2022/06/27 03:24:56;;;;;;;0.00;0.00;;;19.50;99.90;;;;;;4984029;28;20466;-81
2022/06/27 03:27:24;;;;;;;0.00;0.00;;;19.40;99.90;;;;;;4986130;28;20462;-81
2022/06/27 03:29:52;;;;;;;0.00;0.00;;;19.30;99.90;;;;;;4986611;28;20778;-81
2022/06/27 03:32:19;;;;;;;0.00;0.00;;;19.30;99.90;;;;;;4986301;28;20443;-81
2022/06/27 03:34:47;;;;;;;0.00;0.00;;;19.20;99.90;;;;;;4985885;28;20441;-81
2022/06/27 03:37:16;;;;;;;0.00;0.00;;;19.20;99.90;;;;;;4978455;28;20478;-80
2022/06/27 03:39:44;;;;;;;0.00;0.00;;;19.20;99.90;;;;;;4974339;28;20804;-81
2022/06/27 03:42:12;;;;;;;0.00;0.00;;;19.10;99.90;;;;;;4976087;28;20486;-80
2022/06/27 03:45:11;;;;;;;0.00;0.00;;;19.10;99.90;;;;;;4982648;28;20460;-79
2022/06/27 03:47:46;;;;;;;0.00;0.00;;;19.10;99.90;;;;;;4979521;28;20864;-80
2022/06/27 03:50:13;;;;;;;0.00;0.00;;;19.00;99.90;;;;;;4968181;28;20960;-80
2022/06/27 03:52:43;;;;;;;0.00;0.00;;;19.00;99.90;;;;;;4970818;28;20992;-80
2022/06/27 03:55:11;;;;;;;0.00;0.00;;;18.90;99.90;;;;;;4966769;28;20447;-74
2022/06/27 03:57:46;;;;;;;0.00;0.00;;;18.70;99.90;;;;;;4981203;28;20660;-74
2022/06/27 04:00:15;;;;;;;0.00;0.00;;;18.40;99.90;;;;;;4981128;28;20437;-74
2022/06/27 04:02:43;;;;;;;0.00;0.00;;;18.20;99.90;;;;;;4981058;28;20890;-74
2022/06/27 04:05:11;;;;;;;0.00;0.00;;;18.00;99.90;;;;;;4982200;28;20483;-74
2022/06/27 04:07:39;;;;;;;0.00;0.00;;;17.80;99.90;;;;;;4969487;28;20885;-74
2022/06/27 04:10:10;;;;;;;0.00;0.00;;;17.70;99.90;;;;;;4966412;28;20461;-73
2022/06/27 04:12:41;;;;;;;0.00;0.00;;;17.60;99.90;;;;;;4966826;28;20719;-76
2022/06/27 04:15:11;;;;;;;0.00;0.00;;;17.50;99.90;;;;;;4978205;28;20483;-74
2022/06/27 04:17:39;;;;;;;0.00;0.00;;;17.40;99.90;;;;;;4981877;28;20983;-75
2022/06/27 04:20:08;;;;;;;0.00;0.00;;;17.40;99.90;;;;;;4982475;28;20467;-74
2022/06/27 04:22:36;;;;;;;0.00;0.00;;;17.40;99.90;;;;;;4981335;28;20472;-74
2022/06/27 04:25:05;;;;;;;0.00;0.00;;;17.40;99.90;;;;;;4981817;28;20456;-73
2022/06/27 04:27:34;;;;;;;0.00;0.00;;;17.40;99.90;;;;;;4981664;28;20546;-74
2022/06/27 04:30:03;;;;;;;0.00;0.00;;;17.50;99.90;;;;;;4980976;28;20540;-75
2022/06/27 04:32:30;;;;;;;0.00;0.00;;;17.50;99.90;;;;;;4980951;28;20532;-74
2022/06/27 04:34:58;;;;;;;0.00;0.00;;;17.50;99.90;;;;;;4981829;28;20541;-74
2022/06/27 04:37:30;;;;;;;0.00;0.00;;;17.60;99.90;;;;;;4972989;28;20469;-74
2022/06/27 04:39:58;;;;;;;0.00;0.00;;;17.60;99.90;;;;;;4962121;28;20435;-75
2022/06/27 04:42:26;;;;;;;0.00;0.00;;;17.60;99.90;;;;;;4962093;28;20487;-74
2022/06/27 04:44:57;;;;;;;0.00;0.00;;;17.60;99.90;;;;;;4979459;28;20483;-74
2022/06/27 04:47:25;;;;;;;0.00;0.00;;;17.50;99.90;;;;;;4974519;28;20492;-74
2022/06/27 04:49:52;;;;;;;0.00;0.00;;;17.50;99.90;;;;;;4963092;28;20541;-74
2022/06/27 04:52:21;;;;;;;0.00;0.00;;;17.50;99.90;;;;;;4973561;28;20518;-74
2022/06/27 04:54:50;;;;;;;0.00;0.00;;;17.40;99.90;;;;;;4986638;28;20462;-74
2022/06/27 04:57:19;;;;;;;0.00;0.00;;;17.50;99.90;;;;;;4984175;28;20559;-74
2022/06/27 04:59:48;;;;;;;0.00;0.00;;;17.50;99.90;;;;;;4983151;28;20470;-76
2022/06/27 05:02:18;;;;;;;0.00;0.00;;;17.60;99.90;;;;;;4987911;28;20484;-75
2022/06/27 05:04:46;;;;;;;0.00;0.00;;;17.60;99.90;;;;;;4989173;28;20452;-75
2022/06/27 05:07:14;;;;;;;0.00;0.00;;;17.70;99.90;;;;;;4980944;28;20469;-75
2022/06/27 05:09:43;;;;;;;0.00;0.00;;;17.70;99.90;;;;;;4986596;28;20473;-74
2022/06/27 05:12:11;;;;;;;0.00;0.00;;;17.80;99.90;;;;;;4988988;28;20447;-79
2022/06/27 05:14:39;;;;;;;0.00;0.00;;;17.80;99.90;;;;;;4989186;28;20441;-78
2022/06/27 05:17:06;;;;;;;0.00;0.00;;;17.90;99.90;;;;;;4981999;28;20569;-75
2022/06/27 05:19:36;;;;;;;0.00;0.00;;;18.00;99.90;;;;;;4980087;28;20510;-74
2022/06/27 05:22:04;;;;;;;0.00;0.00;;;18.00;99.90;;;;;;4980080;28;20476;-75
2022/06/27 05:24:34;;;;;;;0.00;0.00;;;18.10;99.90;;;;;;4979799;28;20544;-73
2022/06/27 05:27:02;;;;;;;0.00;0.00;;;18.10;99.90;;;;;;4980057;28;20489;-73
2022/06/27 05:29:31;;;;;;;0.00;0.00;;;18.10;99.90;;;;;;4979459;28;20486;-72
2022/06/27 05:31:58;;;;;;;0.00;0.00;;;18.20;99.90;;;;;;4979744;28;20789;-71
2022/06/27 05:34:27;;;;;;;0.00;0.00;;;18.20;99.90;;;;;;4980093;28;20454;-76
2022/06/27 05:36:57;;;;;;;0.00;0.00;;;18.30;99.90;;;;;;4980501;28;20467;-75
2022/06/27 05:39:25;;;;;;;0.00;0.00;;;18.40;99.90;;;;;;4980261;28;20507;-76
2022/06/27 05:41:53;;;;;;;0.00;0.00;;;18.50;99.90;;;;;;4975878;28;20485;-76
2022/06/27 05:44:21;;;;;;;0.00;0.00;;;18.50;99.90;;;;;;4959924;28;20458;-77
2022/06/27 05:46:51;;;;;;;0.00;0.00;;;18.60;99.90;;;;;;4970745;28;20557;-76
2022/06/27 05:49:19;;;;;;;0.00;0.00;;;18.80;99.90;;;;;;4959901;28;20446;-75
2022/06/27 05:51:47;;;;;;;0.00;0.00;;;18.90;99.90;;;;;;4967342;28;20484;-76
2022/06/27 05:54:16;;;;;;;0.00;0.00;;;19.10;99.90;;;;;;4976837;28;20550;-75
2022/06/27 05:56:45;;;;;;;0.00;0.00;;;19.10;99.90;;;;;;4965274;28;20550;-76
2022/06/27 05:59:13;;;;;;;0.00;0.00;;;19.20;99.90;;;;;;4959797;28;20448;-77
2022/06/27 06:01:42;;;;;;;0.00;0.00;;;19.20;99.90;;;;;;4969356;28;20593;-77
2022/06/27 06:04:10;;;;;;;0.00;0.00;;;19.30;99.90;;;;;;4987664;28;20532;-76
2022/06/27 06:06:38;;;;;;;0.00;0.00;;;19.30;99.90;;;;;;4978451;28;20467;-77
2022/06/27 06:09:07;;;;;;;0.00;0.00;;;19.40;99.90;;;;;;4978576;28;20471;-77
2022/06/27 06:11:36;;;;;;;0.00;0.00;;;19.40;99.90;;;;;;4980222;28;20451;-77
2022/06/27 06:14:04;;;;;;;0.00;0.00;;;19.30;99.90;;;;;;4976980;28;20437;-76
2022/06/27 06:16:32;;;;;;;0.00;0.00;;;19.30;99.90;;;;;;4972260;28;20570;-76
2022/06/27 06:19:00;;;;;;;0.00;0.00;;;19.40;99.90;;;;;;4972941;28;20466;-76
2022/06/27 06:21:29;;;;;;;0.00;0.00;;;19.40;99.90;;;;;;4965715;28;20456;-76
2022/06/27 06:23:57;;;;;;;0.00;0.00;;;19.30;99.90;;;;;;4973526;28;21019;-75
2022/06/27 06:26:25;;;;;;;0.00;0.00;;;19.40;99.90;;;;;;4978157;28;20836;-76
2022/06/27 06:28:55;;;;;;;0.00;0.00;;;19.50;99.90;;;;;;4970927;28;20470;-76
2022/06/27 06:31:23;;;;;;;0.00;0.00;;;19.50;99.90;;;;;;4971198;28;20881;-76
2022/06/27 06:33:53;;;;;;;0.00;0.00;;;19.50;99.90;;;;;;4978322;28;20577;-75
2022/06/27 06:36:22;;;;;;;0.00;0.00;;;19.50;99.90;;;;;;4961911;28;20482;-76
2022/06/27 06:38:51;;;;;;;0.00;0.00;;;19.60;99.90;;;;;;4962194;28;20451;-76
2022/06/27 06:41:19;;;;;;;0.00;0.00;;;19.60;99.90;;;;;;4967190;28;20892;-75
2022/06/27 06:43:48;;;;;;;0.00;0.00;;;19.70;99.90;;;;;;4966051;28;20479;-76
2022/06/27 06:46:17;;;;;;;0.00;0.00;;;19.80;99.90;;;;;;4965519;28;20648;-79
2022/06/27 06:48:45;;;;;;;0.00;0.00;;;19.80;99.90;;;;;;4973748;28;20623;-80
2022/06/27 06:51:16;;;;;;;0.00;0.00;;;19.90;99.90;;;;;;5173221;23;20862;-79
2022/06/27 06:53:45;;;;;;;0.00;0.00;;;20.00;99.90;;;;;;4971504;28;20969;-75
2022/06/27 06:56:12;;;;;;;0.00;0.00;;;20.10;99.90;;;;;;4973059;28;20977;-78
2022/06/27 06:58:41;;;;;;;0.00;0.00;;;20.10;99.90;;;;;;4982673;28;20473;-74
2022/06/27 07:01:09;;;;;;;0.00;0.00;;;20.20;99.90;;;;;;4983771;28;20435;-74
2022/06/27 07:03:38;;;;;;;0.00;0.00;;;20.20;99.90;;;;;;4967305;28;20647;-76
2022/06/27 07:06:06;;;;;;;0.00;0.00;;;20.30;99.90;;;;;;4981998;28;21103;-74
2022/06/27 07:08:39;;;;;;;0.00;0.00;;;20.30;99.90;;;;;;4982795;28;20538;-73
2022/06/27 07:11:08;;;;;;;0.00;0.00;;;20.40;99.90;;;;;;4976212;28;20893;-80
2022/06/27 07:13:36;;;;;;;0.00;0.00;;;20.50;99.90;;;;;;4982233;28;20684;-82
2022/06/27 07:16:05;;;;;;;0.00;0.00;;;20.60;99.90;;;;;;4974759;28;20454;-81
2022/06/27 07:18:34;;;;;;;0.00;0.00;;;20.60;99.90;;;;;;4976478;28;20459;-81
2022/06/27 07:21:04;;;;;;;0.00;0.00;;;20.60;99.90;;;;;;4982910;28;20867;-79
2022/06/27 07:23:32;;;;;;;0.00;0.00;;;20.70;99.90;;;;;;4984185;28;20516;-74
2022/06/27 07:26:04;;;;;;;0.00;0.00;;;20.80;99.90;;;;;;4981423;28;20463;-75
2022/06/27 07:28:32;;;;;;;0.00;0.00;;;20.80;99.90;;;;;;4969025;28;20938;-78
2022/06/27 07:31:01;;;;;;;0.00;0.00;;;20.90;99.90;;;;;;4978453;28;20772;-77
2022/06/27 07:33:29;;;;;;;0.00;0.00;;;21.00;99.90;;;;;;4981928;28;20505;-75
2022/06/27 07:35:57;;;;;;;0.00;0.00;;;21.10;99.90;;;;;;4962470;28;21004;-77
2022/06/27 07:38:27;;;;;;;0.00;0.00;;;21.10;99.90;;;;;;4969575;28;20454;-77
2022/06/27 07:40:56;;;;;;;0.00;0.00;;;21.20;99.90;;;;;;4965285;28;20444;-77
2022/06/27 07:43:24;;;;;;;0.00;0.00;;;21.20;99.90;;;;;;4963601;28;20658;-78
2022/06/27 07:45:55;;;;;;;0.00;0.00;;;21.20;99.90;;;;;;4961354;28;20443;-76
2022/06/27 07:48:23;;;;;;;0.00;0.00;;;21.10;99.90;;;;;;4963494;28;20846;-77
2022/06/27 07:50:51;;;;;;;0.00;0.00;;;21.00;99.90;;;;;;4961160;28;20450;-77
2022/06/27 07:53:20;;;;;;;0.00;0.00;;;21.00;99.90;;;;;;4962114;28;20448;-77
2022/06/27 07:55:51;;;;;;;0.00;0.00;;;20.80;99.90;;;;;;4961462;28;20455;-77
2022/06/27 07:58:30;;;;;;;0.00;0.00;;;20.70;99.90;;;;;;4961425;28;20700;-76
2022/06/27 08:00:59;;;;;;;0.00;0.00;;;20.70;99.90;;;;;;4958493;28;21084;-78
2022/06/27 08:03:40;;;;;;;0.00;0.00;;;20.60;99.90;;;;;;4952554;28;20487;-79
2022/06/27 08:06:12;;;;;;;0.00;0.00;;;20.60;99.90;;;;;;4961173;28;20486;-78
2022/06/27 08:08:42;;;;;;;0.00;0.00;;;20.50;99.90;;;;;;4961518;28;20448;-77
2022/06/27 08:11:13;;;;;;;0.00;0.00;;;20.60;99.90;;;;;;4960914;28;20448;-76
2022/06/27 08:13:42;;;;;;;0.00;0.00;;;20.60;99.90;;;;;;4973883;28;20439;-77
2022/06/27 08:16:12;;;;;;;0.00;0.00;;;20.60;99.90;;;;;;4971368;28;20459;-76
2022/06/27 08:18:41;;;;;;;0.00;0.00;;;20.60;99.90;;;;;;4980425;28;20831;-76
2022/06/27 08:21:13;;;;;;;0.00;0.00;;;20.50;99.90;;;;;;4964994;28;20459;-78
2022/06/27 08:23:41;;;;;;;0.00;0.00;;;20.50;99.90;;;;;;4963101;28;20542;-79
2022/06/27 08:26:12;;;;;;;0.00;0.00;;;20.60;99.90;;;;;;4963006;28;20884;-78
2022/06/27 08:28:42;;;;;;;0.00;0.00;;;20.60;99.90;;;;;;4963173;28;20820;-79
2022/06/27 08:31:12;;;;;;;0.00;0.00;;;20.50;99.90;;;;;;4963492;28;20838;-79
2022/06/27 08:33:41;;;;;;;0.00;0.00;;;20.60;99.90;;;;;;4980203;28;20455;-78
2022/06/27 08:36:09;;;;;;;0.00;0.00;;;20.50;99.90;;;;;;4974253;28;20471;-78
2022/06/27 08:38:42;;;;;;;0.00;0.00;;;20.60;99.90;;;;;;4964306;28;20902;-77
2022/06/27 08:41:12;;;;;;;0.00;0.00;;;20.60;99.90;;;;;;4966539;28;20432;-80
2022/06/27 08:43:41;;;;;;;0.00;0.00;;;20.50;99.90;;;;;;4962233;28;20502;-77
2022/06/27 08:46:12;;;;;;;0.00;0.00;;;20.50;99.90;;;;;;4960712;28;20577;-78
2022/06/27 08:48:42;;;;;;;0.00;0.00;;;20.50;99.90;;;;;;4981663;28;20427;-83
2022/06/27 08:51:10;;;;;;;0.00;0.00;;;20.40;99.90;;;;;;4986797;28;20443;-79
2022/06/27 08:53:39;;;;;;;0.00;0.00;;;20.40;99.90;;;;;;4979545;28;20442;-75
2022/06/27 08:56:09;;;;;;;0.00;0.00;;;20.40;99.90;;;;;;4979784;28;21053;-76
2022/06/27 08:58:39;;;;;;;0.00;0.00;;;20.50;99.90;;;;;;4979464;28;20521;-76
2022/06/27 09:01:09;;;;;;;0.00;0.00;;;20.50;99.90;;;;;;4966631;28;20555;-76
2022/06/27 09:03:37;;;;;;;0.00;0.00;;;20.50;99.90;;;;;;4975227;28;20471;-75
2022/06/27 09:06:06;;;;;;;0.00;0.00;;;20.50;99.90;;;;;;4966804;28;20543;-76
2022/06/27 09:08:36;;;;;;;0.00;0.00;;;20.40;99.90;;;;;;4960132;28;20712;-75
2022/06/27 09:11:06;;;;;;;0.00;0.00;;;20.30;99.90;;;;;;4959335;28;20475;-75
2022/06/27 09:13:34;;;;;;;0.00;0.00;;;20.30;99.90;;;;;;4959647;28;20821;-75
2022/06/27 09:16:05;;;;;;;0.00;0.00;;;20.40;99.90;;;;;;4959396;28;20623;-76
2022/06/27 09:18:36;;;;;;;0.00;0.00;;;20.30;99.90;;;;;;4959441;28;20476;-75
2022/06/27 09:21:05;;;;;;;0.00;0.00;;;20.40;99.90;;;;;;4959957;28;20856;-75
2022/06/27 09:23:40;;;;;;;0.00;0.00;;;20.40;99.90;;;;;;4960889;28;20487;-75
2022/06/27 09:26:14;;;;;;;0.00;0.00;;;20.50;99.90;;;;;;4959635;28;20474;-76
2022/06/27 09:28:50;;;;;;;0.00;0.00;;;20.40;99.90;;;;;;4959522;28;20459;-75
2022/06/27 09:31:39;;;;;;;0.00;0.00;;;20.50;99.90;;;;;;4961171;28;20451;-76
2022/06/27 09:34:14;;;;;;;0.00;0.00;;;20.40;99.90;;;;;;4970000;28;20683;-76
2022/06/27 09:36:46;;;;;;;0.00;0.00;;;20.40;99.90;;;;;;4964752;28;20467;-76
2022/06/27 09:39:21;;;;;;;0.00;0.00;;;20.50;99.90;;;;;;4963172;28;20458;-75
2022/06/27 09:41:54;;;;;;;0.00;0.00;;;20.60;99.90;;;;;;4963777;28;20474;-76
2022/06/27 09:44:24;;;;;;;0.00;0.00;;;20.70;99.90;;;;;;4959500;28;20507;-75
2022/06/27 09:46:59;;;;;;;0.00;0.00;;;20.70;99.90;;;;;;4961293;28;20482;-76
2022/06/27 09:49:31;;;;;;;0.00;0.00;;;20.80;99.90;;;;;;4967067;28;20452;-76
2022/06/27 09:52:03;;;;;;;0.00;0.00;;;20.90;99.90;;;;;;4978500;28;20534;-74
2022/06/27 09:54:32;;;;;;;0.00;0.00;;;20.90;99.90;;;;;;4980017;28;20526;-76
2022/06/27 09:57:00;;;;;;;0.00;0.00;;;21.00;99.90;;;;;;4979885;28;20463;-75
2022/06/27 09:59:33;;;;;;;0.00;0.00;;;21.20;99.90;;;;;;4977800;28;20451;-75
2022/06/27 10:02:06;;;;;;;0.00;0.00;;;21.30;99.90;;;;;;4959461;28;20789;-76
2022/06/27 10:04:37;;;;;;;0.00;0.00;;;21.40;99.90;;;;;;4958315;28;20476;-76
2022/06/27 10:07:08;;;;;;;0.00;0.00;;;21.50;99.90;;;;;;4959819;28;21095;-76
2022/06/27 10:09:37;;;;;;;0.00;0.00;;;21.70;99.90;;;;;;4964609;28;20475;-77
2022/06/27 10:12:22;;;;;;;0.00;0.00;;;21.80;99.90;;;;;;4968250;28;20505;-76
2022/06/27 10:15:27;;;;;;;0.00;0.00;;;21.90;99.90;;;;;;4963785;28;20539;-76
2022/06/27 10:17:58;;;;;;;0.00;0.00;;;22.10;99.90;;;;;;4959569;28;20554;-76
2022/06/27 10:20:32;;;;;;;0.00;0.00;;;22.20;99.90;;;;;;4967698;28;20825;-76
2022/06/27 10:23:37;;;;;;;0.00;0.00;;;22.30;99.90;;;;;;4973460;28;20453;-78
2022/06/27 10:26:05;;;;;;;0.00;0.00;;;22.30;99.90;;;;;;4959194;28;20481;-77
2022/06/27 10:28:35;;;;;;;0.00;0.00;;;22.40;99.90;;;;;;4961650;28;20489;-78
2022/06/27 10:31:03;;;;;;;0.00;0.00;;;22.30;99.90;;;;;;4963466;28;20452;-79
2022/06/27 10:33:39;;;;;;;0.00;0.00;;;22.30;99.90;;;;;;4983060;28;20936;-78
2022/06/27 10:36:13;;;;;;;0.00;0.00;;;22.30;99.90;;;;;;4953116;28;20459;-77
2022/06/27 10:38:50;;;;;;;0.00;0.00;;;22.20;99.90;;;;;;4982750;28;20442;-79
2022/06/27 10:41:41;;;;;;;0.00;0.00;;;22.20;99.90;;;;;;4971515;28;20443;-78
2022/06/27 10:44:36;;;;;;;0.00;0.00;;;22.30;99.90;;;;;;4968160;28;20498;-78
2022/06/27 10:47:32;;;;;;;0.00;0.00;;;22.40;99.90;;;;;;4948784;28;20471;-79
2022/06/27 10:50:15;;;;;;;0.00;0.00;;;22.50;99.90;;;;;;4969944;28;20560;-80
2022/06/27 10:52:44;;;;;;;0.00;0.00;;;22.80;99.90;;;;;;4965523;28;20549;-80
2022/06/27 10:55:22;;;;;;;0.00;0.00;;;22.90;99.90;;;;;;4970603;28;20552;-83
2022/06/27 10:57:50;;;;;;;0.00;0.00;;;23.00;99.90;;;;;;4977562;28;20458;-80
2022/06/27 11:00:38;;;;;;;0.00;0.00;;;23.20;99.90;;;;;;4966802;28;20548;-82
2022/06/27 11:03:08;;;;;;;0.00;0.00;;;23.40;99.90;;;;;;4947500;29;20634;-82
2022/06/27 11:06:10;;;;;;;0.00;0.00;;;23.60;99.90;;;;;;4947544;29;20507;-79
2022/06/27 11:08:38;;;;;;;0.00;0.00;;;23.70;99.90;;;;;;4866062;29;20504;-80
2022/06/27 11:11:08;;;;;;;0.00;0.00;;;23.70;99.90;;;;;;4896211;29;20459;-81
2022/06/27 11:13:45;;;;;;;0.00;0.00;;;23.60;99.90;;;;;;4896086;29;20461;-80
2022/06/27 11:16:20;;;;;;;0.00;0.00;;;23.40;99.90;;;;;;4905883;29;20541;-80
2022/06/27 11:18:50;;;;;;;0.00;0.00;;;23.30;99.90;;;;;;4913898;29;20445;-81
2022/06/27 11:21:21;;;;;;;0.00;0.00;;;23.10;99.90;;;;;;4916125;29;20479;-80
2022/06/27 11:23:54;;;;;;;0.00;0.00;;;23.00;99.90;;;;;;4925772;29;20449;-82
2022/06/27 11:26:24;;;;;;;0.00;0.00;;;22.80;99.90;;;;;;4908453;29;20501;-83
2022/06/27 11:32:01;;;;;;;0.00;0.00;;;22.70;99.90;;;;;;4851199;29;20797;-80
2022/06/27 11:34:38;;;;;;;0.00;0.00;;;22.80;99.90;;;;;;4898928;29;20539;-82
2022/06/27 11:37:14;;;;;;;0.00;0.00;;;22.80;99.90;;;;;;4967190;28;20475;-82
2022/06/27 11:39:56;;;;;;;0.00;0.00;;;22.90;99.90;;;;;;4979437;28;20541;-81
2022/06/27 11:42:29;;;;;;;0.00;0.00;;;23.00;99.90;;;;;;4972271;28;20878;-81
2022/06/27 11:45:04;;;;;;;0.00;0.00;;;23.10;99.90;;;;;;4946078;29;20444;-81
2022/06/27 11:47:35;;;;;;;0.00;0.00;;;23.20;99.90;;;;;;4945515;28;20463;-81
2022/06/27 11:50:04;;;;;;;0.00;0.00;;;23.20;99.90;;;;;;4948489;29;20480;-81
2022/06/27 11:52:40;;;;;;;0.00;0.00;;;23.10;99.90;;;;;;4957502;28;20985;-79
2022/06/27 11:55:11;;;;;;;0.00;0.00;;;23.00;99.90;;;;;;4983075;28;20449;-80
2022/06/27 11:57:44;;;;;;;0.00;0.00;;;22.90;99.90;;;;;;4965446;28;20597;-74
2022/06/27 12:00:18;;;;;;;0.00;0.00;;;22.80;99.90;;;;;;4942464;29;20533;-74
2022/06/27 12:02:51;;;;;;;0.00;0.00;;;22.70;99.90;;;;;;4973377;28;20450;-74
2022/06/27 12:05:21;;;;;;;0.00;0.00;;;22.40;99.90;;;;;;4942432;29;20485;-74
2022/06/27 12:07:56;;;;;;;0.00;0.00;;;22.20;99.90;;;;;;4942600;28;21145;-74
2022/06/27 12:10:41;;;;;;;0.00;0.00;;;21.90;99.90;;;;;;4967937;28;20461;-74
2022/06/27 12:13:11;;;;;;;0.00;0.00;;;21.90;99.90;;;;;;4942705;29;20446;-74
2022/06/27 12:15:40;;;;;;;0.00;0.00;;;21.90;99.90;;;;;;4942578;29;20442;-74
2022/06/27 12:18:12;;;;;;;0.00;0.00;;;21.90;99.90;;;;;;4945321;28;21175;-74
2022/06/27 12:20:42;;;;;;;0.00;0.00;;;21.90;99.90;;;;;;4982907;28;20449;-79
2022/06/27 12:23:11;;;;;;;0.00;0.00;;;22.10;99.90;;;;;;4974484;28;20493;-79
2022/06/27 12:25:39;;;;;;;0.00;0.00;;;22.20;99.90;;;;;;4962040;28;20515;-78
2022/06/27 12:28:09;;;;;;;0.00;0.00;;;22.50;99.90;;;;;;4962160;28;20479;-80
2022/06/27 12:30:37;;;;;;;0.00;0.00;;;22.70;99.90;;;;;;4965299;28;20471;-83
2022/06/27 12:33:06;;;;;;;0.00;0.00;;;22.70;99.90;;;;;;4966217;28;20507;-79
2022/06/27 12:35:34;;;;;;;0.00;0.00;;;22.70;99.90;;;;;;4965420;28;20443;-79
2022/06/27 12:38:05;;;;;;;0.00;0.00;;;22.60;99.90;;;;;;4969611;28;20751;-79
2022/06/27 12:40:36;;;;;;;0.00;0.00;;;22.60;99.90;;;;;;4966297;28;20437;-76
2022/06/27 12:43:05;;;;;;;0.00;0.00;;;22.60;99.90;;;;;;4965811;28;20539;-77
2022/06/27 12:45:33;;;;;;;0.00;0.00;;;22.50;99.90;;;;;;4969793;28;21111;-80
2022/06/27 12:48:06;;;;;;;0.00;0.00;;;22.60;99.90;;;;;;4973186;28;20478;-76
2022/06/27 12:50:35;;;;;;;0.00;0.00;;;22.50;99.90;;;;;;4972838;28;20461;-76
2022/06/27 12:53:03;;;;;;;0.00;0.00;;;22.50;99.90;;;;;;4980741;28;20462;-77
2022/06/27 12:55:31;;;;;;;0.00;0.00;;;22.50;99.90;;;;;;4967050;28;20456;-76
2022/06/27 12:58:00;;;;;;;0.00;0.00;;;22.50;99.90;;;;;;4986498;28;20533;-80
2022/06/27 13:00:28;;;;;;;0.00;0.00;;;22.50;99.90;;;;;;4987809;28;20731;-78
2022/06/27 13:02:56;;;;;;;0.00;0.00;;;22.50;99.90;;;;;;4980805;28;20435;-80
2022/06/27 13:05:31;;;;;;;0.00;0.00;;;22.70;99.90;;;;;;4966440;28;21138;-78
2022/06/27 13:07:59;;;;;;;0.00;0.00;;;22.90;99.90;;;;;;4967134;28;20480;-78
2022/06/27 13:10:30;;;;;;;0.00;0.00;;;23.00;99.90;;;;;;4981651;28;20763;-77
2022/06/27 13:12:58;;;;;;;0.00;0.00;;;23.30;99.90;;;;;;4971519;28;20493;-77
2022/06/27 13:15:29;;;;;;;0.00;0.00;;;23.50;99.90;;;;;;4960367;28;20526;-77
2022/06/27 13:17:57;;;;;;;0.00;0.00;;;23.70;99.90;;;;;;4966208;28;20549;-76
2022/06/27 13:20:25;;;;;;;0.00;0.00;;;23.90;99.90;;;;;;4979352;28;20455;-79
2022/06/27 13:22:53;;;;;;;0.00;0.00;;;24.00;99.90;;;;;;4967454;28;20845;-77
2022/06/27 13:25:21;;;;;;;0.00;0.00;;;24.10;99.90;;;;;;4958440;28;20470;-75
2022/06/27 13:27:49;;;;;;;0.00;0.00;;;23.90;99.90;;;;;;4974516;28;20489;-76
2022/06/27 13:30:17;;;;;;;0.00;0.00;;;23.70;99.90;;;;;;4965706;28;20548;-76
2022/06/27 13:32:47;;;;;;;0.00;0.00;;;23.60;99.90;;;;;;4961302;28;20444;-79
2022/06/27 13:35:15;;;;;;;0.00;0.00;;;23.70;99.90;;;;;;4963496;28;20713;-77
2022/06/27 13:37:43;;;;;;;0.00;0.00;;;23.70;99.90;;;;;;4978420;28;20531;-77